sensor_id;sensor_type;location;lat;lon;timestamp;temperature;humidity
19817;DHT22;68323;49.394;8.434;2023-06-14T00:00:38;19.80;57.60
19817;DHT22;68323;49.394;8.434;2023-06-14T00:03:08;19.70;57.80
19817;DHT22;68323;49.394;8.434;2023-06-14T00:05:36;19.80;57.50
19817;DHT22;68323;49.394;8.434;2023-06-14T00:08:06;19.70;57.60
19817;DHT22;68323;49.394;8.434;2023-06-14T00:10:34;19.70;58.00
19817;DHT22;68323;49.394;8.434;2023-06-14T00:13:04;19.70;57.90
19817;DHT22;68323;49.394;8.434;2023-06-14T00:15:30;19.60;57.60
19817;DHT22;68323;49.394;8.434;2023-06-14T00:17:57;19.50;59.10
19817;DHT22;68323;49.394;8.434;2023-06-14T00:20:26;19.50;63.10
19817;DHT22;68323;49.394;8.434;2023-06-14T00:22:52;19.30;63.90
19817;DHT22;68323;49.394;8.434;2023-06-14T00:25:17;19.20;65.10
19817;DHT22;68323;49.394;8.434;2023-06-14T00:27:43;18.90;66.10
19817;DHT22;68323;49.394;8.434;2023-06-14T00:30:09;18.80;65.70
19817;DHT22;68323;49.394;8.434;2023-06-14T00:32:35;18.60;65.50
19817;DHT22;68323;49.394;8.434;2023-06-14T00:35:01;18.50;65.70
19817;DHT22;68323;49.394;8.434;2023-06-14T00:37:26;18.30;66.40
19817;DHT22;68323;49.394;8.434;2023-06-14T00:39:54;18.20;66.40
19817;DHT22;68323;49.394;8.434;2023-06-14T00:42:24;18.00;68.10
19817;DHT22;68323;49.394;8.434;2023-06-14T00:44:50;17.90;69.20
19817;DHT22;68323;49.394;8.434;2023-06-14T00:47:15;17.80;69.10
19817;DHT22;68323;49.394;8.434;2023-06-14T00:49:41;17.70;70.10
19817;DHT22;68323;49.394;8.434;2023-06-14T00:52:07;17.70;70.40
19817;DHT22;68323;49.394;8.434;2023-06-14T00:54:33;17.60;71.00
19817;DHT22;68323;49.394;8.434;2023-06-14T00:56:58;17.50;71.00
19817;DHT22;68323;49.394;8.434;2023-06-14T00:59:25;17.50;71.70
19817;DHT22;68323;49.394;8.434;2023-06-14T01:01:50;17.50;70.80
19817;DHT22;68323;49.394;8.434;2023-06-14T01:04:16;17.40;70.90
19817;DHT22;68323;49.394;8.434;2023-06-14T01:06:54;17.40;71.30
19817;DHT22;68323;49.394;8.434;2023-06-14T01:09:37;17.40;71.90
19817;DHT22;68323;49.394;8.434;2023-06-14T01:12:13;17.40;72.70
19817;DHT22;68323;49.394;8.434;2023-06-14T01:14:41;17.40;73.20
19817;DHT22;68323;49.394;8.434;2023-06-14T01:17:07;17.40;73.00
19817;DHT22;68323;49.394;8.434;2023-06-14T01:19:41;17.30;72.60
19817;DHT22;68323;49.394;8.434;2023-06-14T01:22:08;17.40;71.20
19817;DHT22;68323;49.394;8.434;2023-06-14T01:24:34;17.30;72.40
19817;DHT22;68323;49.394;8.434;2023-06-14T01:27:00;17.40;71.90
19817;DHT22;68323;49.394;8.434;2023-06-14T01:29:27;17.40;71.30
19817;DHT22;68323;49.394;8.434;2023-06-14T01:31:58;17.30;72.00
19817;DHT22;68323;49.394;8.434;2023-06-14T01:34:24;17.30;73.00
19817;DHT22;68323;49.394;8.434;2023-06-14T01:36:50;17.20;73.60
19817;DHT22;68323;49.394;8.434;2023-06-14T01:39:18;17.20;73.60
19817;DHT22;68323;49.394;8.434;2023-06-14T01:41:44;17.20;72.60
19817;DHT22;68323;49.394;8.434;2023-06-14T01:44:12;17.20;72.60
19817;DHT22;68323;49.394;8.434;2023-06-14T01:46:40;17.20;73.50
19817;DHT22;68323;49.394;8.434;2023-06-14T01:49:06;17.10;74.70
19817;DHT22;68323;49.394;8.434;2023-06-14T01:51:32;17.00;75.50
19817;DHT22;68323;49.394;8.434;2023-06-14T01:53:58;17.00;76.10
19817;DHT22;68323;49.394;8.434;2023-06-14T01:56:23;16.90;75.80
19817;DHT22;68323;49.394;8.434;2023-06-14T01:58:49;16.90;76.20
19817;DHT22;68323;49.394;8.434;2023-06-14T02:01:15;16.90;76.10
19817;DHT22;68323;49.394;8.434;2023-06-14T02:03:41;16.90;77.20
19817;DHT22;68323;49.394;8.434;2023-06-14T02:06:07;16.80;76.30
19817;DHT22;68323;49.394;8.434;2023-06-14T02:08:33;16.80;76.70
19817;DHT22;68323;49.394;8.434;2023-06-14T02:10:59;16.80;77.20
19817;DHT22;68323;49.394;8.434;2023-06-14T02:13:24;16.80;77.60
19817;DHT22;68323;49.394;8.434;2023-06-14T02:15:50;16.70;77.40
19817;DHT22;68323;49.394;8.434;2023-06-14T02:18:18;16.70;78.30
19817;DHT22;68323;49.394;8.434;2023-06-14T02:20:44;16.60;78.90
19817;DHT22;68323;49.394;8.434;2023-06-14T02:23:09;16.60;79.40
19817;DHT22;68323;49.394;8.434;2023-06-14T02:25:35;16.50;80.80
19817;DHT22;68323;49.394;8.434;2023-06-14T02:28:00;16.40;81.10
19817;DHT22;68323;49.394;8.434;2023-06-14T02:30:26;16.40;81.50
19817;DHT22;68323;49.394;8.434;2023-06-14T02:32:51;16.40;82.30
19817;DHT22;68323;49.394;8.434;2023-06-14T02:35:18;16.30;82.20
19817;DHT22;68323;49.394;8.434;2023-06-14T02:37:45;16.30;82.40
19817;DHT22;68323;49.394;8.434;2023-06-14T02:40:12;16.30;83.00
19817;DHT22;68323;49.394;8.434;2023-06-14T02:42:37;16.30;82.10
19817;DHT22;68323;49.394;8.434;2023-06-14T02:45:03;16.30;82.40
19817;DHT22;68323;49.394;8.434;2023-06-14T02:47:29;16.30;82.80
19817;DHT22;68323;49.394;8.434;2023-06-14T02:49:55;16.30;82.50
19817;DHT22;68323;49.394;8.434;2023-06-14T02:52:20;16.20;83.10
19817;DHT22;68323;49.394;8.434;2023-06-14T02:54:47;16.20;83.40
19817;DHT22;68323;49.394;8.434;2023-06-14T02:57:12;16.20;83.40
19817;DHT22;68323;49.394;8.434;2023-06-14T02:59:38;16.20;83.70
19817;DHT22;68323;49.394;8.434;2023-06-14T03:02:04;16.10;83.70
19817;DHT22;68323;49.394;8.434;2023-06-14T03:04:30;16.10;83.70
19817;DHT22;68323;49.394;8.434;2023-06-14T03:07:00;16.20;83.10
19817;DHT22;68323;49.394;8.434;2023-06-14T03:09:28;16.20;82.90
19817;DHT22;68323;49.394;8.434;2023-06-14T03:11:54;16.20;82.50
19817;DHT22;68323;49.394;8.434;2023-06-14T03:14:19;16.20;83.20
19817;DHT22;68323;49.394;8.434;2023-06-14T03:16:46;16.20;82.80
19817;DHT22;68323;49.394;8.434;2023-06-14T03:19:12;16.20;84.50
19817;DHT22;68323;49.394;8.434;2023-06-14T03:21:37;16.20;84.40
19817;DHT22;68323;49.394;8.434;2023-06-14T03:24:04;16.20;84.50
19817;DHT22;68323;49.394;8.434;2023-06-14T03:26:30;16.20;84.50
19817;DHT22;68323;49.394;8.434;2023-06-14T03:28:56;16.20;84.10
19817;DHT22;68323;49.394;8.434;2023-06-14T03:31:22;16.20;82.90
19817;DHT22;68323;49.394;8.434;2023-06-14T03:33:49;16.20;83.20
19817;DHT22;68323;49.394;8.434;2023-06-14T03:36:14;16.20;83.90
19817;DHT22;68323;49.394;8.434;2023-06-14T03:38:40;16.20;83.70
19817;DHT22;68323;49.394;8.434;2023-06-14T03:41:05;16.20;83.80
19817;DHT22;68323;49.394;8.434;2023-06-14T03:43:31;16.20;82.50
19817;DHT22;68323;49.394;8.434;2023-06-14T03:45:57;16.20;82.80
19817;DHT22;68323;49.394;8.434;2023-06-14T03:48:22;16.20;82.30
19817;DHT22;68323;49.394;8.434;2023-06-14T03:50:48;16.20;81.70
19817;DHT22;68323;49.394;8.434;2023-06-14T03:53:13;16.20;81.80
19817;DHT22;68323;49.394;8.434;2023-06-14T03:55:39;16.20;81.90
19817;DHT22;68323;49.394;8.434;2023-06-14T03:58:05;16.20;82.50
19817;DHT22;68323;49.394;8.434;2023-06-14T04:00:32;16.20;82.80
19817;DHT22;68323;49.394;8.434;2023-06-14T04:02:57;16.20;82.30
19817;DHT22;68323;49.394;8.434;2023-06-14T04:05:23;16.30;82.40
19817;DHT22;68323;49.394;8.434;2023-06-14T04:07:51;16.30;82.20
19817;DHT22;68323;49.394;8.434;2023-06-14T04:10:17;16.40;81.70
19817;DHT22;68323;49.394;8.434;2023-06-14T04:12:43;16.40;81.70
19817;DHT22;68323;49.394;8.434;2023-06-14T04:15:09;16.50;80.90
19817;DHT22;68323;49.394;8.434;2023-06-14T04:17:36;16.50;80.70
19817;DHT22;68323;49.394;8.434;2023-06-14T04:20:02;16.60;81.70
19817;DHT22;68323;49.394;8.434;2023-06-14T04:22:35;16.70;81.10
19817;DHT22;68323;49.394;8.434;2023-06-14T04:25:02;16.70;81.50
19817;DHT22;68323;49.394;8.434;2023-06-14T04:27:27;16.80;81.60
19817;DHT22;68323;49.394;8.434;2023-06-14T04:29:56;16.80;81.40
19817;DHT22;68323;49.394;8.434;2023-06-14T04:32:24;17.00;80.70
19817;DHT22;68323;49.394;8.434;2023-06-14T04:34:53;17.00;81.00
19817;DHT22;68323;49.394;8.434;2023-06-14T04:37:22;17.10;79.90
19817;DHT22;68323;49.394;8.434;2023-06-14T04:39:50;17.20;79.80
19817;DHT22;68323;49.394;8.434;2023-06-14T04:42:17;17.20;79.50
19817;DHT22;68323;49.394;8.434;2023-06-14T04:44:46;17.30;79.20
19817;DHT22;68323;49.394;8.434;2023-06-14T04:47:12;17.40;79.30
19817;DHT22;68323;49.394;8.434;2023-06-14T04:49:39;17.40;79.20
19817;DHT22;68323;49.394;8.434;2023-06-14T04:52:06;17.50;79.10
19817;DHT22;68323;49.394;8.434;2023-06-14T04:54:32;17.60;79.60
19817;DHT22;68323;49.394;8.434;2023-06-14T04:56:59;17.60;79.60
19817;DHT22;68323;49.394;8.434;2023-06-14T04:59:25;17.80;79.60
19817;DHT22;68323;49.394;8.434;2023-06-14T05:01:51;17.80;79.30
19817;DHT22;68323;49.394;8.434;2023-06-14T05:04:18;17.90;79.10
19817;DHT22;68323;49.394;8.434;2023-06-14T05:06:44;18.10;79.00
19817;DHT22;68323;49.394;8.434;2023-06-14T05:09:11;18.20;77.80
19817;DHT22;68323;49.394;8.434;2023-06-14T05:11:39;18.30;76.40
19817;DHT22;68323;49.394;8.434;2023-06-14T05:14:05;18.40;75.80
19817;DHT22;68323;49.394;8.434;2023-06-14T05:16:31;18.40;76.90
19817;DHT22;68323;49.394;8.434;2023-06-14T05:18:57;18.50;76.00
19817;DHT22;68323;49.394;8.434;2023-06-14T05:21:23;18.70;77.70
19817;DHT22;68323;49.394;8.434;2023-06-14T05:23:48;19.00;77.40
19817;DHT22;68323;49.394;8.434;2023-06-14T05:26:17;19.50;76.10
19817;DHT22;68323;49.394;8.434;2023-06-14T05:28:42;20.30;73.90
19817;DHT22;68323;49.394;8.434;2023-06-14T05:31:08;21.10;69.20
19817;DHT22;68323;49.394;8.434;2023-06-14T05:33:33;22.00;66.50
19817;DHT22;68323;49.394;8.434;2023-06-14T05:35:59;22.70;63.20
19817;DHT22;68323;49.394;8.434;2023-06-14T05:38:24;23.50;59.30
19817;DHT22;68323;49.394;8.434;2023-06-14T05:40:50;24.10;57.00
19817;DHT22;68323;49.394;8.434;2023-06-14T05:43:16;24.60;55.80
19817;DHT22;68323;49.394;8.434;2023-06-14T05:45:42;25.00;53.70
19817;DHT22;68323;49.394;8.434;2023-06-14T05:48:07;25.20;52.60
19817;DHT22;68323;49.394;8.434;2023-06-14T05:50:33;25.30;52.20
19817;DHT22;68323;49.394;8.434;2023-06-14T05:52:59;25.40;51.90
19817;DHT22;68323;49.394;8.434;2023-06-14T05:55:24;25.60;51.30
19817;DHT22;68323;49.394;8.434;2023-06-14T05:57:50;25.70;51.10
19817;DHT22;68323;49.394;8.434;2023-06-14T06:00:16;25.90;50.80
19817;DHT22;68323;49.394;8.434;2023-06-14T06:02:44;26.10;51.10
19817;DHT22;68323;49.394;8.434;2023-06-14T06:05:11;26.30;50.60
19817;DHT22;68323;49.394;8.434;2023-06-14T06:07:37;26.60;49.80
19817;DHT22;68323;49.394;8.434;2023-06-14T06:10:04;26.90;49.00
19817;DHT22;68323;49.394;8.434;2023-06-14T06:12:30;27.10;48.30
19817;DHT22;68323;49.394;8.434;2023-06-14T06:14:56;27.40;47.60
19817;DHT22;68323;49.394;8.434;2023-06-14T06:17:22;27.50;47.20
19817;DHT22;68323;49.394;8.434;2023-06-14T06:19:47;27.60;46.90
19817;DHT22;68323;49.394;8.434;2023-06-14T06:22:13;27.60;47.00
19817;DHT22;68323;49.394;8.434;2023-06-14T06:24:38;27.60;46.50
19817;DHT22;68323;49.394;8.434;2023-06-14T06:27:04;27.60;47.00
19817;DHT22;68323;49.394;8.434;2023-06-14T06:29:29;27.70;45.90
19817;DHT22;68323;49.394;8.434;2023-06-14T06:31:55;27.70;46.00
19817;DHT22;68323;49.394;8.434;2023-06-14T06:34:22;27.80;45.70
19817;DHT22;68323;49.394;8.434;2023-06-14T06:36:47;27.80;46.40
19817;DHT22;68323;49.394;8.434;2023-06-14T06:39:13;28.10;45.20
19817;DHT22;68323;49.394;8.434;2023-06-14T06:41:40;28.20;45.20
19817;DHT22;68323;49.394;8.434;2023-06-14T06:44:06;28.30;45.00
19817;DHT22;68323;49.394;8.434;2023-06-14T06:46:34;28.30;45.00
19817;DHT22;68323;49.394;8.434;2023-06-14T06:49:00;28.40;44.80
19817;DHT22;68323;49.394;8.434;2023-06-14T06:51:26;28.70;44.60
19817;DHT22;68323;49.394;8.434;2023-06-14T06:53:55;29.00;44.80
19817;DHT22;68323;49.394;8.434;2023-06-14T06:56:21;29.20;44.10
19817;DHT22;68323;49.394;8.434;2023-06-14T06:58:49;29.50;43.80
19817;DHT22;68323;49.394;8.434;2023-06-14T07:01:15;30.00;42.60
19817;DHT22;68323;49.394;8.434;2023-06-14T07:03:41;30.20;42.30
19817;DHT22;68323;49.394;8.434;2023-06-14T07:06:06;30.50;41.90
19817;DHT22;68323;49.394;8.434;2023-06-14T07:08:32;30.60;41.10
19817;DHT22;68323;49.394;8.434;2023-06-14T07:10:58;30.50;40.80
19817;DHT22;68323;49.394;8.434;2023-06-14T07:13:23;30.70;41.20
19817;DHT22;68323;49.394;8.434;2023-06-14T07:15:49;31.00;40.60
19817;DHT22;68323;49.394;8.434;2023-06-14T07:18:15;31.30;40.10
19817;DHT22;68323;49.394;8.434;2023-06-14T07:20:41;31.40;39.50
19817;DHT22;68323;49.394;8.434;2023-06-14T07:23:08;31.40;40.10
19817;DHT22;68323;49.394;8.434;2023-06-14T07:25:33;31.90;39.90
19817;DHT22;68323;49.394;8.434;2023-06-14T07:27:59;32.40;38.50
19817;DHT22;68323;49.394;8.434;2023-06-14T07:30:24;32.90;38.90
19817;DHT22;68323;49.394;8.434;2023-06-14T07:32:53;33.10;37.90
19817;DHT22;68323;49.394;8.434;2023-06-14T07:35:18;33.10;37.80
19817;DHT22;68323;49.394;8.434;2023-06-14T07:37:44;33.10;37.10
19817;DHT22;68323;49.394;8.434;2023-06-14T07:40:11;32.80;37.40
19817;DHT22;68323;49.394;8.434;2023-06-14T07:42:36;32.70;38.50
19817;DHT22;68323;49.394;8.434;2023-06-14T07:45:03;33.10;37.90
19817;DHT22;68323;49.394;8.434;2023-06-14T07:47:29;33.80;37.20
19817;DHT22;68323;49.394;8.434;2023-06-14T07:49:55;34.20;37.10
19817;DHT22;68323;49.394;8.434;2023-06-14T07:52:20;34.70;36.90
19817;DHT22;68323;49.394;8.434;2023-06-14T07:54:46;34.80;35.40
19817;DHT22;68323;49.394;8.434;2023-06-14T07:57:11;34.80;35.10
19817;DHT22;68323;49.394;8.434;2023-06-14T07:59:37;34.60;35.10
19817;DHT22;68323;49.394;8.434;2023-06-14T08:02:03;34.20;35.40
19817;DHT22;68323;49.394;8.434;2023-06-14T08:04:28;33.90;36.40
19817;DHT22;68323;49.394;8.434;2023-06-14T08:06:54;33.70;36.10
19817;DHT22;68323;49.394;8.434;2023-06-14T08:09:19;33.70;35.70
19817;DHT22;68323;49.394;8.434;2023-06-14T08:11:45;33.70;36.10
19817;DHT22;68323;49.394;8.434;2023-06-14T08:14:10;33.50;36.00
19817;DHT22;68323;49.394;8.434;2023-06-14T08:16:36;33.20;36.20
19817;DHT22;68323;49.394;8.434;2023-06-14T08:19:02;33.00;36.20
19817;DHT22;68323;49.394;8.434;2023-06-14T08:21:28;32.90;36.80
19817;DHT22;68323;49.394;8.434;2023-06-14T08:23:55;32.80;36.60
19817;DHT22;68323;49.394;8.434;2023-06-14T08:26:21;32.70;37.80
19817;DHT22;68323;49.394;8.434;2023-06-14T08:28:47;32.60;36.90
19817;DHT22;68323;49.394;8.434;2023-06-14T08:31:12;32.50;36.70
19817;DHT22;68323;49.394;8.434;2023-06-14T08:33:38;32.30;36.70
19817;DHT22;68323;49.394;8.434;2023-06-14T08:36:08;32.10;37.30
19817;DHT22;68323;49.394;8.434;2023-06-14T08:38:33;31.90;36.70
19817;DHT22;68323;49.394;8.434;2023-06-14T08:41:01;31.40;37.10
19817;DHT22;68323;49.394;8.434;2023-06-14T08:43:27;31.40;37.00
19817;DHT22;68323;49.394;8.434;2023-06-14T08:45:58;31.40;37.20
19817;DHT22;68323;49.394;8.434;2023-06-14T08:48:26;31.40;37.20
19817;DHT22;68323;49.394;8.434;2023-06-14T08:50:55;31.30;37.80
19817;DHT22;68323;49.394;8.434;2023-06-14T08:53:28;31.80;36.90
19817;DHT22;68323;49.394;8.434;2023-06-14T08:55:54;31.90;35.60
19817;DHT22;68323;49.394;8.434;2023-06-14T08:58:21;31.80;35.40
19817;DHT22;68323;49.394;8.434;2023-06-14T09:00:49;31.80;36.00
19817;DHT22;68323;49.394;8.434;2023-06-14T09:03:17;31.90;36.90
19817;DHT22;68323;49.394;8.434;2023-06-14T09:05:45;32.10;36.30
19817;DHT22;68323;49.394;8.434;2023-06-14T09:08:11;32.20;36.50
19817;DHT22;68323;49.394;8.434;2023-06-14T09:10:37;32.40;36.40
19817;DHT22;68323;49.394;8.434;2023-06-14T09:13:03;33.10;35.50
19817;DHT22;68323;49.394;8.434;2023-06-14T09:15:30;33.20;34.90
19817;DHT22;68323;49.394;8.434;2023-06-14T09:17:55;33.20;34.50
19817;DHT22;68323;49.394;8.434;2023-06-14T09:20:23;33.00;33.90
19817;DHT22;68323;49.394;8.434;2023-06-14T09:22:49;32.90;33.30
19817;DHT22;68323;49.394;8.434;2023-06-14T09:25:14;32.60;33.80
19817;DHT22;68323;49.394;8.434;2023-06-14T09:27:41;32.60;33.40
19817;DHT22;68323;49.394;8.434;2023-06-14T09:30:09;32.50;32.70
19817;DHT22;68323;49.394;8.434;2023-06-14T09:32:39;32.30;33.10
19817;DHT22;68323;49.394;8.434;2023-06-14T09:35:08;32.30;33.90
19817;DHT22;68323;49.394;8.434;2023-06-14T09:37:35;32.20;34.10
19817;DHT22;68323;49.394;8.434;2023-06-14T09:40:01;32.20;34.30
19817;DHT22;68323;49.394;8.434;2023-06-14T09:42:27;32.20;35.30
19817;DHT22;68323;49.394;8.434;2023-06-14T09:44:54;32.30;34.80
19817;DHT22;68323;49.394;8.434;2023-06-14T09:47:21;32.10;34.80
19817;DHT22;68323;49.394;8.434;2023-06-14T09:49:47;32.10;34.60
19817;DHT22;68323;49.394;8.434;2023-06-14T09:52:18;32.40;34.80
19817;DHT22;68323;49.394;8.434;2023-06-14T09:54:45;32.90;34.40
19817;DHT22;68323;49.394;8.434;2023-06-14T09:57:16;32.70;34.40
19817;DHT22;68323;49.394;8.434;2023-06-14T09:59:43;32.80;33.50
19817;DHT22;68323;49.394;8.434;2023-06-14T10:02:22;32.80;33.40
19817;DHT22;68323;49.394;8.434;2023-06-14T10:07:33;33.00;33.70
19817;DHT22;68323;49.394;8.434;2023-06-14T10:10:01;32.80;33.70
19817;DHT22;68323;49.394;8.434;2023-06-14T10:12:26;32.80;35.00
19817;DHT22;68323;49.394;8.434;2023-06-14T10:14:53;33.20;33.90
19817;DHT22;68323;49.394;8.434;2023-06-14T10:20:32;33.40;33.10
19817;DHT22;68323;49.394;8.434;2023-06-14T10:23:13;33.40;33.40
19817;DHT22;68323;49.394;8.434;2023-06-14T10:25:39;33.80;33.90
19817;DHT22;68323;49.394;8.434;2023-06-14T10:28:18;33.90;33.20
19817;DHT22;68323;49.394;8.434;2023-06-14T10:33:29;34.10;33.00
19817;DHT22;68323;49.394;8.434;2023-06-14T10:36:27;34.30;32.30
19817;DHT22;68323;49.394;8.434;2023-06-14T10:39:06;33.70;32.50
19817;DHT22;68323;49.394;8.434;2023-06-14T10:41:35;33.00;33.40
19817;DHT22;68323;49.394;8.434;2023-06-14T10:46:52;32.80;34.00
19817;DHT22;68323;49.394;8.434;2023-06-14T10:49:19;32.70;34.10
19817;DHT22;68323;49.394;8.434;2023-06-14T10:51:46;32.70;35.00
19817;DHT22;68323;49.394;8.434;2023-06-14T10:54:15;32.50;33.80
19817;DHT22;68323;49.394;8.434;2023-06-14T10:56:52;32.20;34.40
19817;DHT22;68323;49.394;8.434;2023-06-14T10:59:18;31.90;34.90
19817;DHT22;68323;49.394;8.434;2023-06-14T11:01:56;31.70;35.40
19817;DHT22;68323;49.394;8.434;2023-06-14T11:04:32;31.10;36.10
19817;DHT22;68323;49.394;8.434;2023-06-14T11:12:35;28.70;39.30
19817;DHT22;68323;49.394;8.434;2023-06-14T11:15:02;28.30;39.30
19817;DHT22;68323;49.394;8.434;2023-06-14T11:17:28;28.00;40.30
19817;DHT22;68323;49.394;8.434;2023-06-14T11:20:09;27.80;40.30
19817;DHT22;68323;49.394;8.434;2023-06-14T11:22:41;27.60;41.30
19817;DHT22;68323;49.394;8.434;2023-06-14T11:25:11;27.50;39.80
19817;DHT22;68323;49.394;8.434;2023-06-14T11:27:37;27.30;40.70
19817;DHT22;68323;49.394;8.434;2023-06-14T11:30:06;27.10;41.00
19817;DHT22;68323;49.394;8.434;2023-06-14T11:32:32;27.00;40.30
19817;DHT22;68323;49.394;8.434;2023-06-14T11:34:58;27.00;40.60
19817;DHT22;68323;49.394;8.434;2023-06-14T11:37:25;26.90;41.10
19817;DHT22;68323;49.394;8.434;2023-06-14T11:39:56;26.90;41.50
19817;DHT22;68323;49.394;8.434;2023-06-14T11:42:22;26.90;41.30
19817;DHT22;68323;49.394;8.434;2023-06-14T11:44:49;26.80;40.90
19817;DHT22;68323;49.394;8.434;2023-06-14T11:47:15;26.70;41.30
19817;DHT22;68323;49.394;8.434;2023-06-14T11:49:40;26.70;41.80
19817;DHT22;68323;49.394;8.434;2023-06-14T11:52:07;26.80;40.60
19817;DHT22;68323;49.394;8.434;2023-06-14T11:54:33;26.90;42.10
19817;DHT22;68323;49.394;8.434;2023-06-14T11:56:59;27.20;40.40
19817;DHT22;68323;49.394;8.434;2023-06-14T11:59:25;27.30;40.30
19817;DHT22;68323;49.394;8.434;2023-06-14T12:01:52;27.30;39.70
19817;DHT22;68323;49.394;8.434;2023-06-14T12:04:28;27.30;39.90
19817;DHT22;68323;49.394;8.434;2023-06-14T12:06:54;27.50;40.00
19817;DHT22;68323;49.394;8.434;2023-06-14T12:09:21;27.70;39.70
19817;DHT22;68323;49.394;8.434;2023-06-14T12:11:49;27.80;40.80
19817;DHT22;68323;49.394;8.434;2023-06-14T12:14:15;27.90;40.20
19817;DHT22;68323;49.394;8.434;2023-06-14T12:16:41;27.90;39.30
19817;DHT22;68323;49.394;8.434;2023-06-14T12:19:13;27.90;39.60
19817;DHT22;68323;49.394;8.434;2023-06-14T12:21:39;27.90;39.20
19817;DHT22;68323;49.394;8.434;2023-06-14T12:24:06;27.80;40.10
19817;DHT22;68323;49.394;8.434;2023-06-14T12:26:32;27.90;40.10
19817;DHT22;68323;49.394;8.434;2023-06-14T12:28:58;28.20;40.40
19817;DHT22;68323;49.394;8.434;2023-06-14T12:31:24;28.50;40.00
19817;DHT22;68323;49.394;8.434;2023-06-14T12:33:49;28.90;39.80
19817;DHT22;68323;49.394;8.434;2023-06-14T12:36:16;29.00;38.40
19817;DHT22;68323;49.394;8.434;2023-06-14T12:38:42;28.90;39.00
19817;DHT22;68323;49.394;8.434;2023-06-14T12:41:08;28.60;38.90
19817;DHT22;68323;49.394;8.434;2023-06-14T12:43:34;28.40;39.40
19817;DHT22;68323;49.394;8.434;2023-06-14T12:46:00;28.30;39.50
19817;DHT22;68323;49.394;8.434;2023-06-14T12:48:26;28.30;39.80
19817;DHT22;68323;49.394;8.434;2023-06-14T12:50:56;28.20;40.60
19817;DHT22;68323;49.394;8.434;2023-06-14T12:53:22;27.90;39.80
19817;DHT22;68323;49.394;8.434;2023-06-14T12:55:48;27.60;40.80
19817;DHT22;68323;49.394;8.434;2023-06-14T12:58:14;27.50;41.00
19817;DHT22;68323;49.394;8.434;2023-06-14T13:00:40;27.60;41.40
19817;DHT22;68323;49.394;8.434;2023-06-14T13:03:05;27.60;41.00
19817;DHT22;68323;49.394;8.434;2023-06-14T13:05:31;27.70;41.30
19817;DHT22;68323;49.394;8.434;2023-06-14T13:07:58;27.80;40.50
19817;DHT22;68323;49.394;8.434;2023-06-14T13:10:24;27.90;40.70
19817;DHT22;68323;49.394;8.434;2023-06-14T13:12:51;28.10;41.20
19817;DHT22;68323;49.394;8.434;2023-06-14T13:15:17;28.40;40.60
19817;DHT22;68323;49.394;8.434;2023-06-14T13:17:42;28.80;39.20
19817;DHT22;68323;49.394;8.434;2023-06-14T13:20:13;28.70;39.50
19817;DHT22;68323;49.394;8.434;2023-06-14T13:22:39;28.70;39.30
19817;DHT22;68323;49.394;8.434;2023-06-14T13:25:06;28.60;39.10
19817;DHT22;68323;49.394;8.434;2023-06-14T13:27:31;28.40;39.80
19817;DHT22;68323;49.394;8.434;2023-06-14T13:29:57;28.30;39.90
19817;DHT22;68323;49.394;8.434;2023-06-14T13:32:23;28.20;39.70
19817;DHT22;68323;49.394;8.434;2023-06-14T13:34:49;28.20;40.00
19817;DHT22;68323;49.394;8.434;2023-06-14T13:37:14;28.30;40.40
19817;DHT22;68323;49.394;8.434;2023-06-14T13:39:40;28.30;39.90
19817;DHT22;68323;49.394;8.434;2023-06-14T13:42:06;28.30;39.40
19817;DHT22;68323;49.394;8.434;2023-06-14T13:44:32;28.10;40.20
19817;DHT22;68323;49.394;8.434;2023-06-14T13:46:57;27.90;40.00
19817;DHT22;68323;49.394;8.434;2023-06-14T13:49:23;27.70;40.50
19817;DHT22;68323;49.394;8.434;2023-06-14T13:51:48;27.60;40.60
19817;DHT22;68323;49.394;8.434;2023-06-14T13:54:14;27.70;40.40
19817;DHT22;68323;49.394;8.434;2023-06-14T13:56:42;27.90;40.40
19817;DHT22;68323;49.394;8.434;2023-06-14T13:59:07;28.20;39.70
19817;DHT22;68323;49.394;8.434;2023-06-14T14:01:33;28.20;39.20
19817;DHT22;68323;49.394;8.434;2023-06-14T14:03:59;28.20;39.70
19817;DHT22;68323;49.394;8.434;2023-06-14T14:06:26;28.40;40.30
19817;DHT22;68323;49.394;8.434;2023-06-14T14:08:51;28.50;39.90
19817;DHT22;68323;49.394;8.434;2023-06-14T14:11:18;28.50;40.40
19817;DHT22;68323;49.394;8.434;2023-06-14T14:13:44;28.50;39.80
19817;DHT22;68323;49.394;8.434;2023-06-14T14:16:10;28.30;40.10
19817;DHT22;68323;49.394;8.434;2023-06-14T14:18:36;28.20;40.50
19817;DHT22;68323;49.394;8.434;2023-06-14T14:21:02;28.00;40.50
19817;DHT22;68323;49.394;8.434;2023-06-14T14:23:27;27.90;40.80
19817;DHT22;68323;49.394;8.434;2023-06-14T14:25:53;27.80;40.20
19817;DHT22;68323;49.394;8.434;2023-06-14T14:28:19;27.80;40.80
19817;DHT22;68323;49.394;8.434;2023-06-14T14:30:46;27.80;41.40
19817;DHT22;68323;49.394;8.434;2023-06-14T14:33:13;27.90;41.30
19817;DHT22;68323;49.394;8.434;2023-06-14T14:35:42;28.10;40.80
19817;DHT22;68323;49.394;8.434;2023-06-14T14:38:08;28.20;39.90
19817;DHT22;68323;49.394;8.434;2023-06-14T14:40:33;28.50;39.80
19817;DHT22;68323;49.394;8.434;2023-06-14T14:42:59;28.70;39.50
19817;DHT22;68323;49.394;8.434;2023-06-14T14:45:24;28.50;39.80
19817;DHT22;68323;49.394;8.434;2023-06-14T14:47:50;28.40;40.10
19817;DHT22;68323;49.394;8.434;2023-06-14T14:50:15;28.50;39.90
19817;DHT22;68323;49.394;8.434;2023-06-14T14:52:41;28.60;40.30
19817;DHT22;68323;49.394;8.434;2023-06-14T14:55:07;28.60;39.60
19817;DHT22;68323;49.394;8.434;2023-06-14T14:57:33;28.50;40.60
19817;DHT22;68323;49.394;8.434;2023-06-14T14:59:59;28.50;39.90
19817;DHT22;68323;49.394;8.434;2023-06-14T15:02:24;28.50;39.90
19817;DHT22;68323;49.394;8.434;2023-06-14T15:04:50;28.70;39.70
19817;DHT22;68323;49.394;8.434;2023-06-14T15:07:15;28.60;39.20
19817;DHT22;68323;49.394;8.434;2023-06-14T15:09:41;28.50;39.40
19817;DHT22;68323;49.394;8.434;2023-06-14T15:12:07;28.40;39.40
19817;DHT22;68323;49.394;8.434;2023-06-14T15:14:33;28.20;39.90
19817;DHT22;68323;49.394;8.434;2023-06-14T15:16:59;28.20;40.50
19817;DHT22;68323;49.394;8.434;2023-06-14T15:19:27;28.10;40.60
19817;DHT22;68323;49.394;8.434;2023-06-14T15:21:52;28.20;41.00
19817;DHT22;68323;49.394;8.434;2023-06-14T15:24:18;28.20;40.90
19817;DHT22;68323;49.394;8.434;2023-06-14T15:26:43;28.30;40.00
19817;DHT22;68323;49.394;8.434;2023-06-14T15:29:09;28.40;40.80
19817;DHT22;68323;49.394;8.434;2023-06-14T15:31:34;28.60;40.30
19817;DHT22;68323;49.394;8.434;2023-06-14T15:34:00;28.60;40.50
19817;DHT22;68323;49.394;8.434;2023-06-14T15:36:25;28.70;40.00
19817;DHT22;68323;49.394;8.434;2023-06-14T15:38:51;28.80;39.90
19817;DHT22;68323;49.394;8.434;2023-06-14T15:41:17;28.70;39.80
19817;DHT22;68323;49.394;8.434;2023-06-14T15:43:42;28.60;39.80